createdAt,value
2023-03-27T00:02:03.958Z,84.03
2023-03-27T00:04:30.399Z,84.33
2023-03-27T00:06:56.720Z,83.88
2023-03-27T00:09:23.044Z,84.32
2023-03-27T00:11:49.675Z,84.52
2023-03-27T00:14:16.148Z,84.10
2023-03-27T00:16:42.499Z,83.83
2023-03-27T00:19:09.114Z,84.24
2023-03-27T00:21:35.438Z,84.74
2023-03-27T00:24:01.799Z,84.54
2023-03-27T00:26:29.834Z,84.15
2023-03-27T00:28:56.490Z,84.44
2023-03-27T00:31:22.865Z,84.74
2023-03-27T00:33:49.600Z,85.01
2023-03-27T00:36:16.107Z,84.68
2023-03-27T00:38:43.196Z,84.60
2023-03-27T00:41:09.737Z,84.41
2023-03-27T00:43:41.920Z,84.48
2023-03-27T00:46:14.138Z,84.39
2023-03-27T00:48:42.779Z,84.27
2023-03-27T00:51:09.500Z,84.27
2023-03-27T00:53:36.584Z,83.85
2023-03-27T00:56:06.982Z,84.38
2023-03-27T00:58:40.975Z,83.96
2023-03-27T01:01:11.789Z,83.74
2023-03-27T01:03:41.457Z,84.00
2023-03-27T01:06:10.381Z,84.87
2023-03-27T01:08:37.844Z,84.93
2023-03-27T01:11:07.290Z,85.17
2023-03-27T01:14:06.383Z,85.15
2023-03-27T01:16:45.373Z,85.32
2023-03-27T01:19:37.589Z,85.03
2023-03-27T01:22:39.298Z,85.14
2023-03-27T01:25:33.657Z,84.50
2023-03-27T01:28:09.771Z,85.26
2023-03-27T01:30:42.678Z,84.80
2023-03-27T01:33:27.072Z,85.31
2023-03-27T01:35:59.817Z,85.06
2023-03-27T01:38:54.137Z,85.55
2023-03-27T01:41:36.990Z,85.32
2023-03-27T01:44:07.977Z,85.42
2023-03-27T01:46:51.672Z,85.46
2023-03-27T01:49:29.571Z,86.44
2023-03-27T01:52:01.425Z,85.03
2023-03-27T01:54:32.197Z,84.86
2023-03-27T01:57:21.627Z,85.12
2023-03-27T01:59:57.865Z,85.93
2023-03-27T02:03:07.975Z,85.62
2023-03-27T02:05:43.846Z,85.25
2023-03-27T02:08:20.177Z,85.48
2023-03-27T02:10:50.938Z,85.46
2023-03-27T02:13:24.660Z,85.40
2023-03-27T02:15:53.041Z,85.52
2023-03-27T02:18:28.289Z,86.04
2023-03-27T02:20:55.045Z,85.78
2023-03-27T02:23:22.266Z,85.76
2023-03-27T02:25:49.891Z,86.18
2023-03-27T02:28:43.882Z,86.59
2023-03-27T02:31:32.849Z,87.07
2023-03-27T02:34:11.262Z,86.67
2023-03-27T02:36:43.940Z,86.53
2023-03-27T02:39:23.174Z,86.17
2023-03-27T02:42:03.853Z,86.15
2023-03-27T02:44:50.937Z,86.31
2023-03-27T02:47:36.981Z,86.31
2023-03-27T02:50:27.748Z,86.47
2023-03-27T02:53:02.585Z,86.19
2023-03-27T02:55:40.650Z,86.43
2023-03-27T02:58:15.975Z,86.28
2023-03-27T03:00:51.373Z,85.98
2023-03-27T03:03:52.888Z,86.16
2023-03-27T03:06:42.632Z,86.11
2023-03-27T03:09:09.776Z,85.81
2023-03-27T03:11:44.018Z,85.31
2023-03-27T03:14:10.440Z,85.99
2023-03-27T03:16:36.927Z,85.72
2023-03-27T03:19:03.412Z,86.10
2023-03-27T03:21:31.246Z,85.07
2023-03-27T03:23:59.151Z,85.22
2023-03-27T03:26:27.059Z,86.30
2023-03-27T03:29:00.802Z,86.18
2023-03-27T03:31:42.717Z,86.02
2023-03-27T03:34:21.786Z,85.78
2023-03-27T03:36:48.518Z,86.02
2023-03-27T03:39:17.627Z,86.27
2023-03-27T03:41:46.949Z,86.29
2023-03-27T03:44:13.301Z,85.61
2023-03-27T03:46:40.308Z,85.97
2023-03-27T03:49:07.458Z,86.37
2023-03-27T03:51:35.630Z,86.26
2023-03-27T03:54:04.684Z,85.67
2023-03-27T03:56:31.155Z,84.88
2023-03-27T03:58:57.507Z,84.86
2023-03-27T04:01:25.404Z,84.39
2023-03-27T04:03:55.941Z,86.48
2023-03-27T04:06:26.630Z,85.60
2023-03-27T04:08:57.559Z,86.37
2023-03-27T04:11:44.140Z,87.73
2023-03-27T04:14:17.802Z,86.49
2023-03-27T04:16:44.253Z,86.31
2023-03-27T04:19:22.753Z,86.04
2023-03-27T04:21:55.551Z,85.64
2023-03-27T04:24:23.364Z,86.37
2023-03-27T04:26:50.667Z,86.73
2023-03-27T04:29:21.752Z,86.72
2023-03-27T04:32:12.260Z,88.57
2023-03-27T04:34:39.826Z,88.48
2023-03-27T04:37:08.833Z,88.35
2023-03-27T04:39:42.154Z,88.52
2023-03-27T04:42:09.768Z,88.50
2023-03-27T04:44:37.024Z,87.86
2023-03-27T04:47:08.020Z,86.15
2023-03-27T04:49:37.938Z,86.46
2023-03-27T04:52:13.789Z,86.92
2023-03-27T04:54:41.286Z,87.39
2023-03-27T04:57:09.349Z,87.11
2023-03-27T04:59:36.555Z,87.00
2023-03-27T05:02:22.490Z,86.33
2023-03-27T05:05:01.380Z,86.07
2023-03-27T05:07:31.613Z,87.74
2023-03-27T05:09:58.253Z,88.02
2023-03-27T05:12:27.548Z,86.22
2023-03-27T05:14:58.672Z,86.84
2023-03-27T05:17:41.391Z,87.71
2023-03-27T05:20:14.232Z,89.13
2023-03-27T05:22:41.663Z,88.41
2023-03-27T05:25:32.296Z,89.79
2023-03-27T05:28:01.485Z,88.01
2023-03-27T05:30:30.553Z,87.95
2023-03-27T05:33:16.912Z,87.58
2023-03-27T05:35:47.603Z,88.93
2023-03-27T05:38:14.999Z,88.64
2023-03-27T05:40:53.919Z,89.44
2023-03-27T05:43:21.270Z,89.25
2023-03-27T05:45:47.829Z,89.81
2023-03-27T05:48:15.076Z,88.96
2023-03-27T05:50:41.883Z,89.49
2023-03-27T05:53:16.747Z,88.79
2023-03-27T05:56:03.098Z,88.29
2023-03-27T05:58:35.828Z,89.02
2023-03-27T06:01:02.779Z,89.34
2023-03-27T06:03:36.683Z,89.03
2023-03-27T06:06:11.027Z,89.45
2023-03-27T06:08:38.121Z,88.60
2023-03-27T06:11:11.752Z,89.23
2023-03-27T06:13:45.453Z,88.40
2023-03-27T06:16:16.136Z,89.59
2023-03-27T06:19:02.299Z,88.67
2023-03-27T06:21:28.828Z,89.17
2023-03-27T06:23:59.376Z,89.24
2023-03-27T06:26:27.735Z,89.12
2023-03-27T06:28:54.522Z,89.74
2023-03-27T06:31:21.491Z,89.50
2023-03-27T06:34:02.524Z,90.79
2023-03-27T06:36:40.367Z,89.38
2023-03-27T06:39:08.241Z,90.01
2023-03-27T06:41:35.122Z,89.69
2023-03-27T06:44:04.310Z,89.61
2023-03-27T06:46:45.258Z,90.06
2023-03-27T06:49:32.548Z,89.83
2023-03-27T06:52:02.921Z,89.96
2023-03-27T06:54:29.416Z,89.96
2023-03-27T06:56:55.985Z,89.25
2023-03-27T06:59:22.825Z,89.08
2023-03-27T07:01:54.148Z,89.11
2023-03-27T07:04:57.689Z,88.34
2023-03-27T07:07:31.407Z,87.87
2023-03-27T07:09:58.378Z,87.19
2023-03-27T07:12:26.293Z,86.99
2023-03-27T07:14:52.850Z,87.07
2023-03-27T07:17:21.753Z,86.87
2023-03-27T07:19:54.025Z,86.84
2023-03-27T07:22:23.945Z,86.88
2023-03-27T07:24:50.344Z,86.28
2023-03-27T07:27:17.372Z,85.96
2023-03-27T07:29:45.212Z,85.13
2023-03-27T07:32:29.802Z,84.52
2023-03-27T07:35:04.571Z,83.21
2023-03-27T07:38:02.495Z,81.42
2023-03-27T07:40:42.838Z,81.48
2023-03-27T07:43:27.834Z,80.83
2023-03-27T07:45:55.067Z,80.02
2023-03-27T07:48:21.554Z,79.49
2023-03-27T07:50:48.096Z,80.22
2023-03-27T07:53:32.902Z,80.29
2023-03-27T07:56:08.823Z,78.65
2023-03-27T07:58:36.306Z,79.20
2023-03-27T08:01:03.849Z,78.99
2023-03-27T08:03:31.963Z,79.52
2023-03-27T08:06:00.761Z,79.43
2023-03-27T08:08:29.333Z,79.34
2023-03-27T08:10:58.799Z,79.09
2023-03-27T08:13:28.875Z,78.56
2023-03-27T08:16:05.127Z,77.09
2023-03-27T08:18:31.645Z,77.23
2023-03-27T08:21:02.564Z,77.49
2023-03-27T08:23:30.422Z,77.87
2023-03-27T08:26:15.362Z,77.03
2023-03-27T08:28:56.361Z,75.81
2023-03-27T08:31:27.087Z,75.69
2023-03-27T08:33:53.691Z,76.31
2023-03-27T08:36:23.775Z,75.93
2023-03-27T08:38:54.385Z,75.37
2023-03-27T08:41:30.070Z,74.91
2023-03-27T08:44:19.330Z,73.62
2023-03-27T08:46:55.362Z,74.18
2023-03-27T08:49:25.871Z,74.05
2023-03-27T08:52:32.366Z,73.71
2023-03-27T08:55:13.871Z,73.18
2023-03-27T08:57:49.561Z,71.89
2023-03-27T09:00:25.824Z,72.71
2023-03-27T09:03:05.538Z,71.85
2023-03-27T09:05:42.083Z,71.51
2023-03-27T09:08:25.918Z,70.97
2023-03-27T09:11:13.994Z,71.30
2023-03-27T09:13:50.909Z,71.07
2023-03-27T09:16:32.291Z,71.96
2023-03-27T09:19:22.065Z,71.06
2023-03-27T09:21:53.954Z,70.17
2023-03-27T09:24:42.614Z,70.02
2023-03-27T09:27:37.711Z,70.02
2023-03-27T09:30:33.012Z,70.37
2023-03-27T09:33:05.756Z,71.64
2023-03-27T09:35:34.701Z,70.82
2023-03-27T09:38:12.531Z,71.24
2023-03-27T09:40:47.746Z,70.91
2023-03-27T09:43:22.354Z,69.67
2023-03-27T09:45:53.012Z,69.38
2023-03-27T09:48:27.725Z,69.89
2023-03-27T09:50:54.190Z,69.60
2023-03-27T09:53:39.047Z,69.74
2023-03-27T09:56:16.764Z,69.20
2023-03-27T09:58:48.444Z,68.30
2023-03-27T10:01:19.710Z,67.87
2023-03-27T10:03:52.898Z,67.77
2023-03-27T10:06:30.836Z,67.53
2023-03-27T10:09:19.032Z,67.14
2023-03-27T10:11:47.530Z,67.13
2023-03-27T10:14:23.208Z,67.17
2023-03-27T10:16:50.061Z,67.77
2023-03-27T10:19:39.367Z,67.65
2023-03-27T10:22:22.931Z,67.83
2023-03-27T10:24:52.342Z,68.65
2023-03-27T10:27:24.195Z,68.45
2023-03-27T10:30:24.682Z,69.31
2023-03-27T10:32:52.188Z,69.05
2023-03-27T10:35:39.356Z,68.55
2023-03-27T10:38:17.601Z,68.73
2023-03-27T10:41:16.845Z,68.46
2023-03-27T10:43:57.045Z,67.36
2023-03-27T10:46:26.564Z,67.26
2023-03-27T10:49:23.784Z,66.79
2023-03-27T10:52:16.400Z,67.45
2023-03-27T10:55:40.732Z,67.49
2023-03-27T10:58:36.067Z,65.45
2023-03-27T11:01:25.903Z,65.33
2023-03-27T11:04:15.386Z,65.08
2023-03-27T11:06:56.564Z,65.07
2023-03-27T11:09:37.989Z,64.63
2023-03-27T11:12:13.910Z,65.10
2023-03-27T11:15:21.557Z,64.57
2023-03-27T11:18:14.175Z,64.14
2023-03-27T11:21:05.154Z,62.57
2023-03-27T11:23:45.841Z,62.93
2023-03-27T11:26:26.767Z,60.37
2023-03-27T11:28:53.329Z,58.40
2023-03-27T11:31:33.533Z,58.38
2023-03-27T11:34:29.511Z,57.92
2023-03-27T11:37:38.962Z,58.03
2023-03-27T11:40:12.890Z,58.32
2023-03-27T11:42:43.398Z,59.07
2023-03-27T11:45:16.880Z,59.55
2023-03-27T11:48:09.352Z,57.63
2023-03-27T11:50:52.374Z,58.94
2023-03-27T11:53:34.660Z,56.86
2023-03-27T11:56:22.973Z,58.20
2023-03-27T11:59:08.987Z,58.10
2023-03-27T12:01:53.353Z,58.68
2023-03-27T12:04:52.169Z,58.34
2023-03-27T12:07:36.374Z,59.47
2023-03-27T12:10:31.408Z,60.10
2023-03-27T12:13:34.939Z,57.83
2023-03-27T12:16:20.187Z,58.48
2023-03-27T12:19:29.854Z,58.58
2023-03-27T12:22:24.370Z,58.65
2023-03-27T12:25:14.599Z,57.26
2023-03-27T12:28:52.883Z,56.92
2023-03-27T12:31:47.543Z,56.31
2023-03-27T12:34:38.359Z,56.73
2023-03-27T12:37:11.510Z,56.55
2023-03-27T12:39:47.623Z,57.40
2023-03-27T12:42:35.512Z,57.99
2023-03-27T12:45:26.750Z,58.92
2023-03-27T12:48:26.819Z,59.74
2023-03-27T12:50:56.617Z,59.66
2023-03-27T12:53:26.399Z,59.79
2023-03-27T12:56:08.958Z,60.39
2023-03-27T12:58:37.479Z,61.48
2023-03-27T13:01:20.923Z,61.51
2023-03-27T13:04:16.241Z,61.70
2023-03-27T13:06:59.504Z,61.46
2023-03-27T13:09:46.780Z,60.37
2023-03-27T13:12:45.195Z,60.54
2023-03-27T13:15:30.144Z,60.59
2023-03-27T13:18:22.097Z,60.99
2023-03-27T13:21:18.374Z,61.56
2023-03-27T13:24:08.581Z,61.96
2023-03-27T13:26:50.443Z,61.80
2023-03-27T13:29:23.259Z,61.73
2023-03-27T13:32:23.796Z,61.43
2023-03-27T13:35:18.831Z,61.25
2023-03-27T13:37:53.988Z,60.37
2023-03-27T13:40:54.495Z,59.62
2023-03-27T13:43:32.974Z,59.51
2023-03-27T13:46:05.078Z,59.81
2023-03-27T13:48:40.820Z,60.34
2023-03-27T13:51:44.198Z,60.89
2023-03-27T13:54:33.230Z,61.84
2023-03-27T13:57:37.660Z,62.60
2023-03-27T14:00:23.360Z,63.07
2023-03-27T14:03:18.049Z,63.14
2023-03-27T14:06:00.283Z,63.65
2023-03-27T14:08:56.096Z,64.02
2023-03-27T14:12:16.512Z,63.40
2023-03-27T14:15:45.473Z,63.21
2023-03-27T14:18:58.909Z,63.42
2023-03-27T14:21:38.275Z,63.71
2023-03-27T14:24:22.533Z,63.13
2023-03-27T14:26:52.888Z,63.39
2023-03-27T14:29:20.527Z,63.64
2023-03-27T14:31:49.990Z,63.54
2023-03-27T14:34:43.493Z,63.89
2023-03-27T14:37:38.368Z,64.52
2023-03-27T14:40:31.284Z,64.83
2023-03-27T14:43:01.465Z,65.17
2023-03-27T14:45:32.853Z,65.62
2023-03-27T14:48:12.863Z,65.70
2023-03-27T14:50:45.844Z,65.97
2023-03-27T14:53:17.620Z,66.56
2023-03-27T14:56:03.856Z,67.37
2023-03-27T14:58:52.778Z,66.47
2023-03-27T15:01:19.601Z,66.90
2023-03-27T15:03:52.173Z,67.74
2023-03-27T15:06:21.432Z,67.87
2023-03-27T15:08:54.991Z,68.58
2023-03-27T15:11:53.773Z,69.47
2023-03-27T15:14:28.479Z,69.83
2023-03-27T15:17:17.066Z,69.46
2023-03-27T15:19:53.084Z,69.07
2023-03-27T15:22:33.015Z,69.44
2023-03-27T15:25:17.070Z,69.62
2023-03-27T15:27:52.147Z,70.01
2023-03-27T15:30:31.378Z,69.39
2023-03-27T15:33:03.556Z,69.16
2023-03-27T15:35:34.463Z,68.40
2023-03-27T15:38:06.692Z,69.08
2023-03-27T15:40:39.026Z,68.32
2023-03-27T15:43:13.795Z,68.65
2023-03-27T15:45:56.732Z,68.58
2023-03-27T15:48:30.440Z,68.39
2023-03-27T15:51:10.011Z,68.44
2023-03-27T15:53:39.414Z,68.64
2023-03-27T15:56:05.887Z,68.97
2023-03-27T15:58:45.679Z,69.15
2023-03-27T16:01:35.968Z,69.65
2023-03-27T16:04:15.993Z,69.54
2023-03-27T16:06:48.291Z,69.65
2023-03-27T16:09:20.657Z,70.13
2023-03-27T16:11:48.808Z,70.11
2023-03-27T16:14:41.000Z,69.88
2023-03-27T16:17:14.638Z,69.91
2023-03-27T16:19:48.355Z,70.05
2023-03-27T16:22:32.821Z,69.63
2023-03-27T16:25:01.041Z,69.87
2023-03-27T16:27:49.060Z,69.84
2023-03-27T16:30:27.797Z,70.19
2023-03-27T16:32:55.229Z,70.21
2023-03-27T16:35:22.064Z,69.48
2023-03-27T16:37:49.510Z,69.09
2023-03-27T16:40:16.118Z,68.79
2023-03-27T16:42:42.544Z,68.22
2023-03-27T16:45:09.321Z,67.86
2023-03-27T16:47:35.728Z,67.39
2023-03-27T16:50:11.383Z,67.53
2023-03-27T16:52:38.400Z,68.59
2023-03-27T16:55:07.166Z,71.43
2023-03-27T16:57:35.427Z,73.32
2023-03-27T17:00:02.675Z,74.63
2023-03-27T17:02:29.114Z,74.98
2023-03-27T17:04:55.844Z,75.67
2023-03-27T17:07:26.606Z,76.01
2023-03-27T17:09:52.962Z,76.76
2023-03-27T17:12:19.621Z,77.01
2023-03-27T17:14:46.546Z,77.17
2023-03-27T17:17:13.604Z,78.08
2023-03-27T17:19:40.040Z,78.59
2023-03-27T17:22:06.404Z,78.10
2023-03-27T17:24:40.171Z,78.06
2023-03-27T17:27:12.204Z,78.42
2023-03-27T17:29:41.299Z,77.89
2023-03-27T17:32:08.272Z,77.89
2023-03-27T17:34:35.249Z,77.83
2023-03-27T17:37:01.759Z,77.49
2023-03-27T17:39:28.384Z,77.87
2023-03-27T17:41:54.813Z,78.25
2023-03-27T17:44:21.154Z,78.58
2023-03-27T17:46:47.583Z,79.13
2023-03-27T17:49:14.099Z,80.42
2023-03-27T17:51:41.023Z,81.05
2023-03-27T17:54:07.337Z,81.15
2023-03-27T17:56:33.691Z,81.74
2023-03-27T17:59:00.636Z,82.56
2023-03-27T18:01:27.325Z,83.03
2023-03-27T18:03:54.776Z,84.05
2023-03-27T18:06:21.951Z,84.22
2023-03-27T18:08:49.069Z,83.85
2023-03-27T18:11:15.972Z,83.80
2023-03-27T18:13:42.533Z,83.33
2023-03-27T18:16:12.615Z,83.41
2023-03-27T18:18:40.264Z,83.51
2023-03-27T18:21:09.455Z,83.42
2023-03-27T18:23:37.766Z,83.44
2023-03-27T18:26:12.792Z,83.03
2023-03-27T18:28:39.205Z,83.24
2023-03-27T18:31:08.509Z,83.11
2023-03-27T18:33:36.095Z,82.78
2023-03-27T18:36:04.055Z,82.90
2023-03-27T18:38:32.896Z,82.40
2023-03-27T18:41:00.227Z,82.88
2023-03-27T18:43:27.842Z,82.40
2023-03-27T18:45:56.239Z,82.35
2023-03-27T18:48:23.489Z,82.67
2023-03-27T18:50:58.030Z,82.56
2023-03-27T18:53:26.052Z,82.22
2023-03-27T18:55:54.412Z,82.64
2023-03-27T18:58:23.591Z,82.58
2023-03-27T19:00:50.819Z,82.75
2023-03-27T19:03:19.474Z,82.42
2023-03-27T19:05:47.162Z,82.91
2023-03-27T19:08:14.307Z,82.41
2023-03-27T19:10:41.258Z,82.61
2023-03-27T19:13:18.270Z,82.63
2023-03-27T19:16:15.389Z,83.08
2023-03-27T19:19:11.428Z,83.06
2023-03-27T19:21:53.583Z,83.04
2023-03-27T19:24:32.817Z,82.96
2023-03-27T19:26:59.654Z,82.96
2023-03-27T19:29:26.069Z,83.17
2023-03-27T19:31:53.677Z,83.09
2023-03-27T19:34:27.326Z,82.82
2023-03-27T19:37:03.042Z,82.91
2023-03-27T19:39:29.374Z,82.97
2023-03-27T19:41:55.874Z,82.92
2023-03-27T19:44:23.064Z,82.61
2023-03-27T19:46:49.710Z,82.68
2023-03-27T19:49:16.395Z,81.89
2023-03-27T19:51:54.043Z,81.09
2023-03-27T19:54:20.527Z,80.18
2023-03-27T19:56:46.963Z,79.39
2023-03-27T19:59:20.840Z,78.12
2023-03-27T20:01:54.993Z,78.01
2023-03-27T20:04:21.458Z,77.21
2023-03-27T20:06:48.055Z,76.89
2023-03-27T20:09:14.561Z,76.30
2023-03-27T20:11:41.195Z,75.38
2023-03-27T20:14:11.018Z,75.27
2023-03-27T20:16:40.809Z,74.79
2023-03-27T20:19:08.683Z,73.24
2023-03-27T20:21:38.722Z,73.17
2023-03-27T20:24:09.103Z,72.95
2023-03-27T20:26:41.099Z,72.84
2023-03-27T20:29:15.585Z,72.37
2023-03-27T20:31:44.639Z,72.47
2023-03-27T20:34:11.304Z,72.01
2023-03-27T20:36:38.310Z,71.68
2023-03-27T20:39:15.027Z,72.03
2023-03-27T20:41:41.744Z,71.71
2023-03-27T20:44:15.323Z,71.68
2023-03-27T20:46:50.334Z,71.58
2023-03-27T20:51:53.485Z,70.79
2023-03-27T20:54:19.908Z,70.80
2023-03-27T20:56:46.361Z,71.42
2023-03-27T20:59:13.418Z,71.52
2023-03-27T21:01:42.405Z,71.49
2023-03-27T21:04:10.810Z,71.16
2023-03-27T21:06:37.617Z,71.77
2023-03-27T21:09:06.687Z,71.74
2023-03-27T21:11:33.584Z,72.10
2023-03-27T21:14:00.029Z,72.26
2023-03-27T21:16:26.979Z,71.56
2023-03-27T21:18:53.446Z,71.61
2023-03-27T21:21:20.010Z,71.70
2023-03-27T21:23:47.440Z,71.95
2023-03-27T21:26:15.349Z,71.82
2023-03-27T21:28:41.716Z,71.97
2023-03-27T21:31:09.828Z,72.25
2023-03-27T21:33:37.380Z,72.54
2023-03-27T21:36:04.510Z,72.46
2023-03-27T21:38:31.089Z,72.60
2023-03-27T21:40:57.449Z,72.63
2023-03-27T21:43:23.871Z,72.74
2023-03-27T21:45:50.970Z,72.78
2023-03-27T21:48:17.765Z,72.80
2023-03-27T21:50:44.346Z,72.74
2023-03-27T21:53:11.614Z,72.93
2023-03-27T21:55:38.287Z,72.77
2023-03-27T21:58:05.486Z,72.75
2023-03-27T22:00:32.296Z,72.76
2023-03-27T22:02:58.845Z,72.80
2023-03-27T22:05:25.752Z,72.82
2023-03-27T22:07:52.180Z,72.95
2023-03-27T22:10:18.633Z,72.96
2023-03-27T22:12:44.963Z,72.83
2023-03-27T22:15:11.414Z,73.00
2023-03-27T22:17:38.153Z,73.43
2023-03-27T22:20:06.308Z,73.35
2023-03-27T22:22:34.824Z,73.43
2023-03-27T22:25:01.335Z,73.20
2023-03-27T22:27:27.984Z,73.37
2023-03-27T22:29:54.324Z,73.46
2023-03-27T22:32:20.702Z,73.73
2023-03-27T22:34:48.510Z,74.07
2023-03-27T22:37:16.016Z,74.22
2023-03-27T22:39:42.340Z,74.28
2023-03-27T22:42:10.124Z,73.96
2023-03-27T22:44:36.497Z,74.41
2023-03-27T22:47:02.906Z,74.34
2023-03-27T22:49:29.274Z,74.66
2023-03-27T22:51:55.603Z,74.65
2023-03-27T22:54:22.390Z,75.23
2023-03-27T22:56:48.734Z,75.34
2023-03-27T22:59:16.614Z,74.50
2023-03-27T23:01:44.007Z,74.28
2023-03-27T23:04:10.873Z,75.27
2023-03-27T23:06:37.963Z,75.94
2023-03-27T23:09:04.473Z,76.20
2023-03-27T23:11:30.900Z,76.01
2023-03-27T23:13:57.203Z,75.95
2023-03-27T23:16:23.650Z,75.99
2023-03-27T23:18:50.448Z,75.41
2023-03-27T23:21:17.560Z,76.12
2023-03-27T23:23:44.708Z,76.51
2023-03-27T23:26:12.079Z,76.36
2023-03-27T23:28:40.690Z,77.25
2023-03-27T23:31:11.567Z,76.88
2023-03-27T23:33:40.884Z,77.22
2023-03-27T23:36:13.110Z,77.60
2023-03-27T23:38:41.160Z,78.18
2023-03-27T23:41:10.322Z,77.56
2023-03-27T23:43:37.409Z,77.72
2023-03-27T23:46:07.991Z,77.82
2023-03-27T23:48:34.668Z,78.14
2023-03-27T23:51:01.506Z,78.35
2023-03-27T23:53:28.839Z,78.07
2023-03-27T23:55:57.136Z,78.29
2023-03-27T23:58:27.710Z,78.12
